地図

経路データ

SID SEASON NUMBER BASIN SUBBASIN NAME ISO_TIME NATURE LAT LON WMO_WIND WMO_PRES WMO_AGENCY TRACK_TYPE DIST2LAND LANDFALL IFLAG USA_AGENCY USA_ATCF_ID USA_LAT USA_LON USA_RECORD USA_STATUS USA_WIND USA_PRES USA_SSHS USA_R34_NE USA_R34_SE USA_R34_SW USA_R34_NW USA_R50_NE USA_R50_SE USA_R50_SW USA_R50_NW USA_R64_NE USA_R64_SE USA_R64_SW USA_R64_NW USA_POCI USA_ROCI USA_RMW USA_EYE TOKYO_LAT TOKYO_LON TOKYO_GRADE TOKYO_WIND TOKYO_PRES TOKYO_R50_DIR TOKYO_R50_LONG TOKYO_R50_SHORT TOKYO_R30_DIR TOKYO_R30_LONG TOKYO_R30_SHORT TOKYO_LAND CMA_LAT CMA_LON CMA_CAT CMA_WIND CMA_PRES HKO_LAT HKO_LON HKO_CAT HKO_WIND HKO_PRES NEWDELHI_LAT NEWDELHI_LON NEWDELHI_GRADE NEWDELHI_WIND NEWDELHI_PRES NEWDELHI_CI NEWDELHI_DP NEWDELHI_POCI REUNION_LAT REUNION_LON REUNION_TYPE REUNION_WIND REUNION_PRES REUNION_TNUM REUNION_CI REUNION_RMW REUNION_R34_NE REUNION_R34_SE REUNION_R34_SW REUNION_R34_NW REUNION_R50_NE REUNION_R50_SE REUNION_R50_SW REUNION_R50_NW REUNION_R64_NE REUNION_R64_SE REUNION_R64_SW REUNION_R64_NW BOM_LAT BOM_LON BOM_TYPE BOM_WIND BOM_PRES BOM_TNUM BOM_CI BOM_RMW BOM_R34_NE BOM_R34_SE BOM_R34_SW BOM_R34_NW BOM_R50_NE BOM_R50_SE BOM_R50_SW BOM_R50_NW BOM_R64_NE BOM_R64_SE BOM_R64_SW BOM_R64_NW BOM_ROCI BOM_POCI BOM_EYE BOM_POS_METHOD BOM_PRES_METHOD NADI_LAT NADI_LON NADI_CAT NADI_WIND NADI_PRES WELLINGTON_LAT WELLINGTON_LON WELLINGTON_WIND WELLINGTON_PRES DS824_LAT DS824_LON DS824_STAGE DS824_WIND DS824_PRES TD9636_LAT TD9636_LON TD9636_STAGE TD9636_WIND TD9636_PRES TD9635_LAT TD9635_LON TD9635_WIND TD9635_PRES TD9635_ROCI NEUMANN_LAT NEUMANN_LON NEUMANN_CLASS NEUMANN_WIND NEUMANN_PRES MLC_LAT MLC_LON MLC_CLASS MLC_WIND MLC_PRES USA_GUST BOM_GUST BOM_GUST_PER REUNION_GUST REUNION_GUST_PER USA_SEAHGT USA_SEARAD_NE USA_SEARAD_SE USA_SEARAD_SW USA_SEARAD_NW STORM_SPEED STORM_DIR
1911247N12303 1911 57 NA NA NOT_NAMED 1911-09-03 12:00:00 TS 12.0000 -57.0000 30 hurdat_atl main 460 392 O_____________ hurdat_atl AL041911 12.0000 -57.0000 TD 30 -1 14 278
1911247N12303 1911 57 NA NA NOT_NAMED 1911-09-03 15:00:00 TS 12.1004 -57.6999 main 392 329 P_____________ AL041911 12.1004 -57.6999 TD 30 -1 14 278
1911247N12303 1911 57 NA NA NOT_NAMED 1911-09-03 18:00:00 TS 12.2000 -58.4000 30 hurdat_atl main 329 273 O_____________ hurdat_atl AL041911 12.2000 -58.4000 TD 30 -1 14 278
1911247N12303 1911 57 NA NA NOT_NAMED 1911-09-03 21:00:00 TS 12.2998 -59.1001 main 273 231 P_____________ AL041911 12.2998 -59.1001 TD 30 -1 14 278
1911247N12303 1911 57 NA CS NOT_NAMED 1911-09-04 00:00:00 TS 12.4000 -59.8000 30 hurdat_atl main 231 208 O_____________ hurdat_atl AL041911 12.4000 -59.8000 TD 30 -1 14 278
1911247N12303 1911 57 NA CS NOT_NAMED 1911-09-04 03:00:00 TS 12.4999 -60.5075 main 208 201 P_____________ AL041911 12.4999 -60.5075 TD 30 -1 14 278
1911247N12303 1911 57 NA CS NOT_NAMED 1911-09-04 06:00:00 TS 12.6000 -61.2000 30 hurdat_atl main 212 212 O_____________ hurdat_atl AL041911 12.6000 -61.2000 TD 30 -1 13 279
1911247N12303 1911 57 NA CS NOT_NAMED 1911-09-04 09:00:00 TS 12.7073 -61.8650 main 225 224 P_____________ AL041911 12.7073 -61.8650 TD 32 -1 13 279
1911247N12303 1911 57 NA CS NOT_NAMED 1911-09-04 12:00:00 TS 12.8000 -62.5000 35 hurdat_atl main 235 235 O_____________ hurdat_atl AL041911 12.8000 -62.5000 TS 35 0 12 277
1911247N12303 1911 57 NA CS NOT_NAMED 1911-09-04 15:00:00 TS 12.8574 -63.1151 main 246 246 P_____________ AL041911 12.8574 -63.1151 TS 35 0 12 275
1911247N12303 1911 57 NA CS NOT_NAMED 1911-09-04 18:00:00 TS 12.9000 -63.7000 35 hurdat_atl main 254 254 O_____________ hurdat_atl AL041911 12.9000 -63.7000 TS 35 0 11 275
1911247N12303 1911 57 NA CS NOT_NAMED 1911-09-04 21:00:00 TS 12.9573 -64.2575 main 268 268 P_____________ AL041911 12.9573 -64.2575 TS 35 0 11 275
1911247N12303 1911 57 NA CS NOT_NAMED 1911-09-05 00:00:00 TS 13.0000 -64.8000 35 hurdat_atl main 276 276 O_____________ hurdat_atl AL041911 13.0000 -64.8000 TS 35 0 11 273
1911247N12303 1911 57 NA CS NOT_NAMED 1911-09-05 03:00:00 TS 13.0074 -65.3501 main 276 268 P_____________ AL041911 13.0074 -65.3501 TS 35 0 11 270
1911247N12303 1911 57 NA CS NOT_NAMED 1911-09-05 06:00:00 TS 13.0000 -65.9000 35 hurdat_atl main 268 268 O_____________ hurdat_atl AL041911 13.0000 -65.9000 TS 35 0 11 270
1911247N12303 1911 57 NA CS NOT_NAMED 1911-09-05 09:00:00 TS 12.9999 -66.4575 main 268 252 P_____________ AL041911 12.9999 -66.4575 TS 35 0 11 270
1911247N12303 1911 57 NA CS NOT_NAMED 1911-09-05 12:00:00 TS 13.0000 -67.0000 35 hurdat_atl main 252 224 O_____________ hurdat_atl AL041911 13.0000 -67.0000 TS 35 0 10 270
1911247N12303 1911 57 NA CS NOT_NAMED 1911-09-05 15:00:00 TS 12.9999 -67.5075 main 224 199 P_____________ AL041911 12.9999 -67.5075 TS 37 0 10 270
1911247N12303 1911 57 NA CS NOT_NAMED 1911-09-05 18:00:00 TS 13.0000 -68.0000 40 hurdat_atl main 199 180 O_____________ hurdat_atl AL041911 13.0000 -68.0000 TS 40 0 10 270
1911247N12303 1911 57 NA CS NOT_NAMED 1911-09-05 21:00:00 TS 12.9999 -68.5000 main 180 140 P_____________ AL041911 12.9999 -68.5000 TS 40 0 10 270
1911247N12303 1911 57 NA CS NOT_NAMED 1911-09-06 00:00:00 TS 13.0000 -69.0000 40 hurdat_atl main 140 109 O_____________ hurdat_atl AL041911 13.0000 -69.0000 TS 40 0 10 270
1911247N12303 1911 57 NA CS NOT_NAMED 1911-09-06 03:00:00 TS 12.9999 -69.5000 main 109 100 P_____________ AL041911 12.9999 -69.5000 TS 42 0 10 270
1911247N12303 1911 57 NA CS NOT_NAMED 1911-09-06 06:00:00 TS 13.0000 -70.0000 45 hurdat_atl main 100 100 O_____________ hurdat_atl AL041911 13.0000 -70.0000 TS 45 0 10 270
1911247N12303 1911 57 NA CS NOT_NAMED 1911-09-06 09:00:00 TS 13.0075 -70.5150 main 105 84 P_____________ AL041911 13.0075 -70.5150 TS 45 0 10 270
1911247N12303 1911 57 NA CS NOT_NAMED 1911-09-06 12:00:00 TS 13.0000 -71.0000 45 hurdat_atl main 84 68 O_____________ hurdat_atl AL041911 13.0000 -71.0000 TS 45 0 9 267
1911247N12303 1911 57 NA CS NOT_NAMED 1911-09-06 15:00:00 TS 12.9574 -71.4300 main 68 55 P_____________ AL041911 12.9574 -71.4300 TS 47 0 8 263
1911247N12303 1911 57 NA CS NOT_NAMED 1911-09-06 18:00:00 TS 12.9000 -71.8000 50 hurdat_atl main 57 57 O_____________ hurdat_atl AL041911 12.9000 -71.8000 TS 50 0 7 261
1911247N12303 1911 57 NA CS NOT_NAMED 1911-09-06 21:00:00 TS 12.8499 -72.1150 main 57 57 P_____________ AL041911 12.8499 -72.1150 TS 50 0 6 260
1911247N12303 1911 57 NA CS NOT_NAMED 1911-09-07 00:00:00 TS 12.8000 -72.4000 50 hurdat_atl main 70 70 O_____________ hurdat_atl AL041911 12.8000 -72.4000 TS 50 0 6 261
1911247N12303 1911 57 NA CS NOT_NAMED 1911-09-07 03:00:00 TS 12.7575 -72.7075 main 86 85 P_____________ AL041911 12.7575 -72.7075 TS 52 0 6 260
1911247N12303 1911 57 NA CS NOT_NAMED 1911-09-07 06:00:00 TS 12.7000 -73.0000 55 hurdat_atl main 103 103 O_____________ hurdat_atl AL041911 12.7000 -73.0000 TS 55 0 6 254
1911247N12303 1911 57 NA CS NOT_NAMED 1911-09-07 09:00:00 TS 12.6074 -73.2500 main 109 109 P_____________ AL041911 12.6074 -73.2500 TS 55 0 5 248
1911247N12303 1911 57 NA CS NOT_NAMED 1911-09-07 12:00:00 TS 12.5000 -73.5000 55 hurdat_atl main 117 117 O_____________ hurdat_atl AL041911 12.5000 -73.5000 TS 55 0 6 248
1911247N12303 1911 57 NA CS NOT_NAMED 1911-09-07 15:00:00 TS 12.3925 -73.7925 main 132 123 P_____________ AL041911 12.3925 -73.7925 TS 57 0 6 251
1911247N12303 1911 57 NA CS NOT_NAMED 1911-09-07 18:00:00 TS 12.3000 -74.1000 60 hurdat_atl main 123 114 O_____________ hurdat_atl AL041911 12.3000 -74.1000 TS 60 0 6 256
1911247N12303 1911 57 NA CS NOT_NAMED 1911-09-07 21:00:00 TS 12.2425 -74.4000 main 114 114 P_____________ AL041911 12.2425 -74.4000 TS 60 0 6 260
1911247N12303 1911 57 NA CS NOT_NAMED 1911-09-08 00:00:00 TS 12.2000 -74.7000 60 hurdat_atl main 124 124 O_____________ hurdat_atl AL041911 12.2000 -74.7000 TS 60 0 6 261
1911247N12303 1911 57 NA CS NOT_NAMED 1911-09-08 03:00:00 TS 12.1499 -74.9925 main 123 123 P_____________ AL041911 12.1499 -74.9925 TS 62 0 6 260
1911247N12303 1911 57 NA CS NOT_NAMED 1911-09-08 06:00:00 TS 12.1000 -75.3000 65 hurdat_atl main 130 130 O_____________ hurdat_atl AL041911 12.1000 -75.3000 HU 65 1 6 260
1911247N12303 1911 57 NA CS NOT_NAMED 1911-09-08 09:00:00 TS 12.0425 -75.6350 main 135 135 P_____________ AL041911 12.0425 -75.6350 HU 67 1 7 262
1911247N12303 1911 57 NA CS NOT_NAMED 1911-09-08 12:00:00 TS 12.0000 -76.0000 70 hurdat_atl main 154 154 O_____________ hurdat_atl AL041911 12.0000 -76.0000 HU 70 1 7 266
1911247N12303 1911 57 NA CS NOT_NAMED 1911-09-08 15:00:00 TS 11.9849 -76.3850 main 180 180 P_____________ AL041911 11.9849 -76.3850 HU 70 1 8 270
1911247N12303 1911 57 NA CS NOT_NAMED 1911-09-08 18:00:00 TS 12.0000 -76.8000 70 hurdat_atl main 211 211 O_____________ hurdat_atl AL041911 12.0000 -76.8000 HU 70 1 8 274
1911247N12303 1911 57 NA CS NOT_NAMED 1911-09-08 21:00:00 TS 12.0424 -77.2350 main 242 242 P_____________ AL041911 12.0424 -77.2350 HU 72 1 9 276
1911247N12303 1911 57 NA CS NOT_NAMED 1911-09-09 00:00:00 TS 12.1000 -77.7000 75 hurdat_atl main 292 292 O_____________ hurdat_atl AL041911 12.1000 -77.7000 HU 75 1 9 277
1911247N12303 1911 57 NA CS NOT_NAMED 1911-09-09 03:00:00 TS 12.1499 -78.1925 main 307 305 P_____________ AL041911 12.1499 -78.1925 HU 77 1 10 276
1911247N12303 1911 57 NA CS NOT_NAMED 1911-09-09 06:00:00 TS 12.2000 -78.7000 80 hurdat_atl main 305 302 O_____________ hurdat_atl AL041911 12.2000 -78.7000 HU 80 1 10 276
1911247N12303 1911 57 NA CS NOT_NAMED 1911-09-09 09:00:00 TS 12.2498 -79.1850 main 302 302 P_____________ AL041911 12.2498 -79.1850 HU 82 1 10 276
1911247N12303 1911 57 NA CS NOT_NAMED 1911-09-09 12:00:00 TS 12.3000 -79.7000 85 hurdat_atl main 313 313 O_____________ hurdat_atl AL041911 12.3000 -79.7000 HU 85 2 11 275
1911247N12303 1911 57 NA CS NOT_NAMED 1911-09-09 15:00:00 TS 12.3424 -80.2776 main 320 282 P_____________ AL041911 12.3424 -80.2776 HU 85 2 12 275
1911247N12303 1911 57 NA CS NOT_NAMED 1911-09-09 18:00:00 TS 12.4000 -80.9000 85 hurdat_atl main 282 217 O_____________ hurdat_atl AL041911 12.4000 -80.9000 HU 85 2 13 277
1911247N12303 1911 57 NA CS NOT_NAMED 1911-09-09 21:00:00 TS 12.4924 -81.5500 main 217 141 P_____________ AL041911 12.4924 -81.5500 HU 85 2 13 279
1911247N12303 1911 57 NA CS NOT_NAMED 1911-09-10 00:00:00 TS 12.6000 -82.2000 85 hurdat_atl main 141 75 O_____________ hurdat_atl AL041911 12.6000 -82.2000 HU 85 2 12 280
1911247N12303 1911 57 NA CS NOT_NAMED 1911-09-10 03:00:00 TS 12.6998 -82.8075 main 75 10 P_____________ AL041911 12.6998 -82.8075 HU 85 2 12 280
1911247N12303 1911 57 NA CS NOT_NAMED 1911-09-10 06:00:00 TS 12.8000 -83.4000 85 hurdat_atl main 10 0 O_____________ hurdat_atl AL041911 12.8000 -83.4000 HU 85 2 12 280
1911247N12303 1911 57 NA NA NOT_NAMED 1911-09-10 09:00:00 TS 12.8999 -84.0075 main 0 0 P_____________ AL041911 12.8999 -84.0075 HU 72 1 12 280
1911247N12303 1911 57 NA NA NOT_NAMED 1911-09-10 12:00:00 TS 13.0000 -84.6000 60 hurdat_atl main 0 0 O_____________ hurdat_atl AL041911 13.0000 -84.6000 TS 60 0 11 280
1911247N12303 1911 57 NA NA NOT_NAMED 1911-09-10 15:00:00 TS 13.1073 -85.1575 main 0 0 P_____________ AL041911 13.1073 -85.1575 TS 52 0 11 281
1911247N12303 1911 57 NA NA NOT_NAMED 1911-09-10 18:00:00 TS 13.2000 -85.7000 45 hurdat_atl main 0 0 O_____________ hurdat_atl AL041911 13.2000 -85.7000 TS 45 0 11 278
1911247N12303 1911 57 NA NA NOT_NAMED 1911-09-10 21:00:00 TS 13.2574 -86.2501 main 0 0 P_____________ AL041911 13.2574 -86.2501 TS 42 0 11 275
1911247N12303 1911 57 NA NA NOT_NAMED 1911-09-11 00:00:00 TS 13.3000 -86.8000 40 hurdat_atl main 0 0 O_____________ hurdat_atl AL041911 13.3000 -86.8000 TS 40 0 11 275
1911247N12303 1911 57 NA NA NOT_NAMED 1911-09-11 03:00:00 TS 13.3574 -87.3500 main 0 0 P_____________ AL041911 13.3574 -87.3500 TS 40 0 11 275
1911247N12303 1911 57 NA NA NOT_NAMED 1911-09-11 06:00:00 TS 13.4000 -87.9000 40 hurdat_atl main 0 0 O_____________ hurdat_atl AL041911 13.4000 -87.9000 TS 40 0 11 272
1911247N12303 1911 57 NA NA NOT_NAMED 1911-09-11 09:00:00 TS 13.3923 -88.4427 main 0 0 P_____________ AL041911 13.3923 -88.4427 TS 37 0 11 270
1911247N12303 1911 57 EP MM NOT_NAMED 1911-09-11 12:00:00 TS 13.4000 -89.0000 35 hurdat_atl main 0 0 O_____________ hurdat_atl AL041911 13.4000 -89.0000 TS 35 0 11 275
1911247N12303 1911 57 EP MM NOT_NAMED 1911-09-11 15:00:00 TS 13.4848 -89.5775 main 0 0 P_____________ AL041911 13.4848 -89.5775 TS 35 0 12 280
1911247N12303 1911 57 EP MM NOT_NAMED 1911-09-11 18:00:00 TS 13.6000 -90.2000 35 hurdat_atl main 22 22 O_____________ hurdat_atl AL041911 13.6000 -90.2000 TS 35 0 13 280
1911247N12303 1911 57 EP MM NOT_NAMED 1911-09-11 21:00:00 TS 13.6999 -90.8776 main 22 11 P_____________ AL041911 13.6999 -90.8776 TS 35 0 14 278
1911247N12303 1911 57 EP MM NOT_NAMED 1911-09-12 00:00:00 TS 13.8000 -91.6000 35 hurdat_atl main 31 31 O_____________ hurdat_atl AL041911 13.8000 -91.6000 TS 35 0 15 278
1911247N12303 1911 57 EP MM NOT_NAMED 1911-09-12 03:00:00 TS 13.9154 -92.4249 main 70 70 P_____________ AL041911 13.9154 -92.4249 TS 35 0 15 278
1911247N12303 1911 57 EP MM NOT_NAMED 1911-09-12 06:00:00 TS 14.0000 -93.1000 35 hurdat_atl main 108 108 O_____________ hurdat_atl AL041911 14.0000 -93.1000 TS 35 0 9 276
1911247N12303 1911 57 EP MM NOT_NAMED 1911-09-12 09:00:00 TS 14.0071 -93.3751 main 132 132 P_____________ AL041911 14.0071 -93.3751 TS 32 -1 4 270
1911247N12303 1911 57 EP MM NOT_NAMED 1911-09-12 12:00:00 TS 14.0000 -93.5000 30 hurdat_atl main 139 139 O_____________ hurdat_atl AL041911 14.0000 -93.5000 TD 30 -1 3 275
1911247N12303 1911 57 EP MM NOT_NAMED 1911-09-12 15:00:00 TS 14.0352 -93.7124 main 155 155 P_____________ AL041911 14.0352 -93.7124 TD 30 -1 5 282
1911247N12303 1911 57 EP MM NOT_NAMED 1911-09-12 18:00:00 TS 14.1000 -94.0000 30 hurdat_atl main 170 O_____________ hurdat_atl AL041911 14.1000 -94.0000 TD 30 -1 6 283

IBTrACS Databaseについて

本データベースは、米国NOAAが公開する1842年以降の世界の熱帯低気圧のベストトラックデータアーカイブInternational Best Track Archive for Climate Stewardship (IBTrACS)を、ウェブで閲覧しやすい形式に変換したものです。

最終更新日:2021-10-21